sensor_id;sensor_type;location;lat;lon;timestamp;P1;durP1;ratioP1;P2;durP2;ratioP2
49840;SDS011;35738;49.890;5.930;2023-04-01T00:01:04;9.75;;;1.90;;
49840;SDS011;35738;49.890;5.930;2023-04-01T00:03:32;8.88;;;1.67;;
49840;SDS011;35738;49.890;5.930;2023-04-01T00:06:00;5.70;;;1.48;;
49840;SDS011;35738;49.890;5.930;2023-04-01T00:08:27;8.07;;;1.40;;
49840;SDS011;35738;49.890;5.930;2023-04-01T00:10:54;5.95;;;1.90;;
49840;SDS011;35738;49.890;5.930;2023-04-01T00:13:23;9.60;;;1.77;;
49840;SDS011;35738;49.890;5.930;2023-04-01T00:15:52;4.40;;;1.52;;
49840;SDS011;35738;49.890;5.930;2023-04-01T00:18:19;7.93;;;1.63;;
49840;SDS011;35738;49.890;5.930;2023-04-01T00:20:49;8.13;;;1.88;;
49840;SDS011;35738;49.890;5.930;2023-04-01T00:23:18;9.55;;;2.33;;
49840;SDS011;35738;49.890;5.930;2023-04-01T00:25:45;7.57;;;1.45;;
49840;SDS011;35738;49.890;5.930;2023-04-01T00:28:17;7.45;;;1.73;;
49840;SDS011;35738;49.890;5.930;2023-04-01T00:30:45;8.55;;;2.03;;
49840;SDS011;35738;49.890;5.930;2023-04-01T00:33:11;8.90;;;1.60;;
49840;SDS011;35738;49.890;5.930;2023-04-01T00:35:38;7.82;;;1.48;;
49840;SDS011;35738;49.890;5.930;2023-04-01T00:38:05;7.35;;;1.80;;
49840;SDS011;35738;49.890;5.930;2023-04-01T00:40:36;7.50;;;1.40;;
49840;SDS011;35738;49.890;5.930;2023-04-01T00:43:09;8.45;;;1.60;;
49840;SDS011;35738;49.890;5.930;2023-04-01T00:45:40;10.07;;;1.92;;
49840;SDS011;35738;49.890;5.930;2023-04-01T00:48:15;6.95;;;1.60;;
49840;SDS011;35738;49.890;5.930;2023-04-01T00:50:46;7.22;;;1.60;;
49840;SDS011;35738;49.890;5.930;2023-04-01T00:53:17;6.18;;;1.70;;
49840;SDS011;35738;49.890;5.930;2023-04-01T00:55:56;4.57;;;1.63;;
49840;SDS011;35738;49.890;5.930;2023-04-01T00:58:27;9.18;;;1.85;;
49840;SDS011;35738;49.890;5.930;2023-04-01T01:00:57;3.35;;;1.17;;
49840;SDS011;35738;49.890;5.930;2023-04-01T01:03:26;7.75;;;1.45;;
49840;SDS011;35738;49.890;5.930;2023-04-01T01:08:43;4.57;;;1.25;;
49840;SDS011;35738;49.890;5.930;2023-04-01T01:11:57;6.43;;;1.25;;
49840;SDS011;35738;49.890;5.930;2023-04-01T01:22:56;4.53;;;1.20;;
49840;SDS011;35738;49.890;5.930;2023-04-01T01:25:40;6.30;;;1.30;;
49840;SDS011;35738;49.890;5.930;2023-04-01T01:28:35;5.07;;;1.30;;
49840;SDS011;35738;49.890;5.930;2023-04-01T01:31:18;4.20;;;1.30;;
49840;SDS011;35738;49.890;5.930;2023-04-01T01:36:21;3.13;;;1.00;;
49840;SDS011;35738;49.890;5.930;2023-04-01T01:38:55;3.78;;;1.17;;
49840;SDS011;35738;49.890;5.930;2023-04-01T01:41:25;3.05;;;1.20;;
49840;SDS011;35738;49.890;5.930;2023-04-01T01:43:52;5.50;;;1.50;;
49840;SDS011;35738;49.890;5.930;2023-04-01T01:46:22;3.72;;;1.05;;
49840;SDS011;35738;49.890;5.930;2023-04-01T01:48:52;4.72;;;1.10;;
49840;SDS011;35738;49.890;5.930;2023-04-01T01:51:20;5.50;;;1.00;;
49840;SDS011;35738;49.890;5.930;2023-04-01T01:53:48;2.90;;;0.95;;
49840;SDS011;35738;49.890;5.930;2023-04-01T01:56:15;3.63;;;1.10;;
49840;SDS011;35738;49.890;5.930;2023-04-01T01:58:45;3.95;;;0.82;;
49840;SDS011;35738;49.890;5.930;2023-04-01T02:01:24;1.63;;;0.90;;
49840;SDS011;35738;49.890;5.930;2023-04-01T02:03:53;4.55;;;1.08;;
49840;SDS011;35738;49.890;5.930;2023-04-01T02:06:22;3.85;;;0.93;;
49840;SDS011;35738;49.890;5.930;2023-04-01T02:08:52;2.72;;;1.00;;
49840;SDS011;35738;49.890;5.930;2023-04-01T02:11:29;3.55;;;1.00;;
49840;SDS011;35738;49.890;5.930;2023-04-01T02:14:01;2.95;;;1.15;;
49840;SDS011;35738;49.890;5.930;2023-04-01T02:16:36;2.58;;;1.00;;
49840;SDS011;35738;49.890;5.930;2023-04-01T02:19:09;4.72;;;1.05;;
49840;SDS011;35738;49.890;5.930;2023-04-01T02:21:38;5.07;;;1.00;;
49840;SDS011;35738;49.890;5.930;2023-04-01T02:24:10;3.28;;;0.95;;
49840;SDS011;35738;49.890;5.930;2023-04-01T02:26:41;3.35;;;0.75;;
49840;SDS011;35738;49.890;5.930;2023-04-01T02:29:08;2.88;;;0.60;;
49840;SDS011;35738;49.890;5.930;2023-04-01T02:31:36;2.72;;;0.70;;
49840;SDS011;35738;49.890;5.930;2023-04-01T02:34:03;3.55;;;0.70;;
49840;SDS011;35738;49.890;5.930;2023-04-01T02:36:30;1.77;;;0.65;;
49840;SDS011;35738;49.890;5.930;2023-04-01T02:38:58;2.60;;;0.68;;
49840;SDS011;35738;49.890;5.930;2023-04-01T02:41:30;2.63;;;0.70;;
49840;SDS011;35738;49.890;5.930;2023-04-01T02:43:57;1.63;;;0.80;;
49840;SDS011;35738;49.890;5.930;2023-04-01T02:46:24;2.53;;;0.90;;
49840;SDS011;35738;49.890;5.930;2023-04-01T02:48:51;1.00;;;0.70;;
49840;SDS011;35738;49.890;5.930;2023-04-01T02:51:17;3.30;;;0.90;;
49840;SDS011;35738;49.890;5.930;2023-04-01T02:53:45;1.70;;;0.57;;
49840;SDS011;35738;49.890;5.930;2023-04-01T02:56:11;1.85;;;0.80;;
49840;SDS011;35738;49.890;5.930;2023-04-01T02:58:38;1.95;;;0.70;;
49840;SDS011;35738;49.890;5.930;2023-04-01T03:01:04;5.25;;;0.82;;
49840;SDS011;35738;49.890;5.930;2023-04-01T03:03:31;2.03;;;0.70;;
49840;SDS011;35738;49.890;5.930;2023-04-01T03:05:57;1.98;;;0.55;;
49840;SDS011;35738;49.890;5.930;2023-04-01T03:08:26;1.58;;;0.80;;
49840;SDS011;35738;49.890;5.930;2023-04-01T03:10:52;2.13;;;0.75;;
49840;SDS011;35738;49.890;5.930;2023-04-01T03:13:19;2.03;;;0.70;;
49840;SDS011;35738;49.890;5.930;2023-04-01T03:15:45;4.63;;;0.85;;
49840;SDS011;35738;49.890;5.930;2023-04-01T03:18:12;2.67;;;0.75;;
49840;SDS011;35738;49.890;5.930;2023-04-01T03:20:38;1.80;;;0.57;;
49840;SDS011;35738;49.890;5.930;2023-04-01T03:23:04;4.03;;;0.60;;
49840;SDS011;35738;49.890;5.930;2023-04-01T03:25:31;1.08;;;0.60;;
49840;SDS011;35738;49.890;5.930;2023-04-01T03:27:58;3.20;;;0.75;;
49840;SDS011;35738;49.890;5.930;2023-04-01T03:30:26;1.35;;;0.60;;
49840;SDS011;35738;49.890;5.930;2023-04-01T03:32:52;1.88;;;0.60;;
49840;SDS011;35738;49.890;5.930;2023-04-01T03:35:19;1.25;;;0.40;;
49840;SDS011;35738;49.890;5.930;2023-04-01T03:37:45;1.65;;;0.65;;
49840;SDS011;35738;49.890;5.930;2023-04-01T03:40:12;2.28;;;1.23;;
49840;SDS011;35738;49.890;5.930;2023-04-01T03:42:38;1.33;;;0.60;;
49840;SDS011;35738;49.890;5.930;2023-04-01T03:45:05;0.55;;;0.50;;
49840;SDS011;35738;49.890;5.930;2023-04-01T03:47:32;0.68;;;0.50;;
49840;SDS011;35738;49.890;5.930;2023-04-01T03:49:59;3.15;;;0.50;;
49840;SDS011;35738;49.890;5.930;2023-04-01T03:52:26;2.05;;;0.50;;
49840;SDS011;35738;49.890;5.930;2023-04-01T03:54:52;2.80;;;0.60;;
49840;SDS011;35738;49.890;5.930;2023-04-01T03:57:19;1.45;;;0.50;;
49840;SDS011;35738;49.890;5.930;2023-04-01T03:59:45;1.30;;;0.50;;
49840;SDS011;35738;49.890;5.930;2023-04-01T04:02:12;1.58;;;0.50;;
49840;SDS011;35738;49.890;5.930;2023-04-01T04:04:38;1.00;;;0.50;;
49840;SDS011;35738;49.890;5.930;2023-04-01T04:07:05;0.85;;;0.40;;
49840;SDS011;35738;49.890;5.930;2023-04-01T04:09:31;0.68;;;0.43;;
49840;SDS011;35738;49.890;5.930;2023-04-01T04:11:58;3.25;;;0.95;;
49840;SDS011;35738;49.890;5.930;2023-04-01T04:14:25;1.45;;;0.40;;
49840;SDS011;35738;49.890;5.930;2023-04-01T04:16:52;0.40;;;0.40;;
49840;SDS011;35738;49.890;5.930;2023-04-01T04:19:18;0.52;;;0.40;;
49840;SDS011;35738;49.890;5.930;2023-04-01T04:21:45;0.30;;;0.30;;
49840;SDS011;35738;49.890;5.930;2023-04-01T04:24:11;0.85;;;0.45;;
49840;SDS011;35738;49.890;5.930;2023-04-01T04:26:38;0.45;;;0.45;;
49840;SDS011;35738;49.890;5.930;2023-04-01T04:29:04;1.17;;;0.40;;
49840;SDS011;35738;49.890;5.930;2023-04-01T04:31:31;0.63;;;0.40;;
49840;SDS011;35738;49.890;5.930;2023-04-01T04:33:58;1.20;;;0.52;;
49840;SDS011;35738;49.890;5.930;2023-04-01T04:36:27;1.13;;;0.50;;
49840;SDS011;35738;49.890;5.930;2023-04-01T04:38:53;0.40;;;0.40;;
49840;SDS011;35738;49.890;5.930;2023-04-01T04:41:20;1.02;;;0.30;;
49840;SDS011;35738;49.890;5.930;2023-04-01T04:43:52;0.80;;;0.40;;
49840;SDS011;35738;49.890;5.930;2023-04-01T04:46:20;0.47;;;0.40;;
49840;SDS011;35738;49.890;5.930;2023-04-01T04:48:47;0.75;;;0.40;;
49840;SDS011;35738;49.890;5.930;2023-04-01T04:51:15;1.40;;;0.50;;
49840;SDS011;35738;49.890;5.930;2023-04-01T04:53:43;0.57;;;0.50;;
49840;SDS011;35738;49.890;5.930;2023-04-01T04:56:10;1.08;;;0.45;;
49840;SDS011;35738;49.890;5.930;2023-04-01T04:58:37;0.52;;;0.50;;
49840;SDS011;35738;49.890;5.930;2023-04-01T05:01:05;0.47;;;0.43;;
49840;SDS011;35738;49.890;5.930;2023-04-01T05:03:37;1.58;;;0.50;;
49840;SDS011;35738;49.890;5.930;2023-04-01T05:06:04;0.30;;;0.30;;
49840;SDS011;35738;49.890;5.930;2023-04-01T05:08:32;2.22;;;0.45;;
49840;SDS011;35738;49.890;5.930;2023-04-01T05:11:00;1.30;;;0.50;;
49840;SDS011;35738;49.890;5.930;2023-04-01T05:13:27;4.50;;;2.70;;
49840;SDS011;35738;49.890;5.930;2023-04-01T05:15:54;0.65;;;0.60;;
49840;SDS011;35738;49.890;5.930;2023-04-01T05:18:21;1.70;;;0.70;;
49840;SDS011;35738;49.890;5.930;2023-04-01T05:20:49;0.77;;;0.45;;
49840;SDS011;35738;49.890;5.930;2023-04-01T05:23:17;0.57;;;0.40;;
49840;SDS011;35738;49.890;5.930;2023-04-01T05:25:43;2.17;;;0.60;;
49840;SDS011;35738;49.890;5.930;2023-04-01T05:28:11;0.63;;;0.40;;
49840;SDS011;35738;49.890;5.930;2023-04-01T05:30:39;0.35;;;0.35;;
49840;SDS011;35738;49.890;5.930;2023-04-01T05:33:07;0.90;;;0.40;;
49840;SDS011;35738;49.890;5.930;2023-04-01T05:35:35;0.40;;;0.40;;
49840;SDS011;35738;49.890;5.930;2023-04-01T05:38:02;1.15;;;0.45;;
49840;SDS011;35738;49.890;5.930;2023-04-01T05:40:28;0.30;;;0.30;;
49840;SDS011;35738;49.890;5.930;2023-04-01T05:42:55;0.40;;;0.25;;
49840;SDS011;35738;49.890;5.930;2023-04-01T05:45:22;0.30;;;0.30;;
49840;SDS011;35738;49.890;5.930;2023-04-01T05:47:49;0.40;;;0.40;;
49840;SDS011;35738;49.890;5.930;2023-04-01T05:50:16;0.93;;;0.40;;
49840;SDS011;35738;49.890;5.930;2023-04-01T05:52:42;1.02;;;0.40;;
49840;SDS011;35738;49.890;5.930;2023-04-01T05:55:09;0.50;;;0.50;;
49840;SDS011;35738;49.890;5.930;2023-04-01T05:57:35;0.55;;;0.45;;
49840;SDS011;35738;49.890;5.930;2023-04-01T06:00:03;0.80;;;0.50;;
49840;SDS011;35738;49.890;5.930;2023-04-01T06:02:30;0.50;;;0.50;;
49840;SDS011;35738;49.890;5.930;2023-04-01T06:05:02;0.30;;;0.30;;
49840;SDS011;35738;49.890;5.930;2023-04-01T06:07:38;0.50;;;0.50;;
49840;SDS011;35738;49.890;5.930;2023-04-01T06:10:14;0.50;;;0.50;;
49840;SDS011;35738;49.890;5.930;2023-04-01T06:12:45;0.45;;;0.45;;
49840;SDS011;35738;49.890;5.930;2023-04-01T06:18:26;0.30;;;0.30;;
49840;SDS011;35738;49.890;5.930;2023-04-01T06:27:32;0.20;;;0.20;;
49840;SDS011;35738;49.890;5.930;2023-04-01T06:39:12;0.47;;;0.47;;
49840;SDS011;35738;49.890;5.930;2023-04-01T06:44:43;0.30;;;0.30;;
49840;SDS011;35738;49.890;5.930;2023-04-01T06:56:02;9.60;;;7.15;;
49840;SDS011;35738;49.890;5.930;2023-04-01T06:58:35;0.45;;;0.45;;
49840;SDS011;35738;49.890;5.930;2023-04-01T07:01:07;0.47;;;0.47;;
49840;SDS011;35738;49.890;5.930;2023-04-01T07:03:41;0.75;;;0.60;;
49840;SDS011;35738;49.890;5.930;2023-04-01T07:06:16;0.55;;;0.50;;
49840;SDS011;35738;49.890;5.930;2023-04-01T07:09:09;0.65;;;0.60;;
49840;SDS011;35738;49.890;5.930;2023-04-01T07:11:39;0.90;;;0.55;;
49840;SDS011;35738;49.890;5.930;2023-04-01T07:16:49;0.50;;;0.50;;
49840;SDS011;35738;49.890;5.930;2023-04-01T07:22:21;0.60;;;0.60;;
49840;SDS011;35738;49.890;5.930;2023-04-01T07:24:50;0.60;;;0.60;;
49840;SDS011;35738;49.890;5.930;2023-04-01T07:27:19;0.60;;;0.60;;
49840;SDS011;35738;49.890;5.930;2023-04-01T07:29:45;0.50;;;0.50;;
49840;SDS011;35738;49.890;5.930;2023-04-01T07:32:15;4.18;;;2.92;;
49840;SDS011;35738;49.890;5.930;2023-04-01T07:34:50;1.88;;;1.75;;
49840;SDS011;35738;49.890;5.930;2023-04-01T07:45:48;0.55;;;0.55;;
49840;SDS011;35738;49.890;5.930;2023-04-01T07:48:49;0.80;;;0.80;;
49840;SDS011;35738;49.890;5.930;2023-04-01T07:51:39;0.80;;;0.80;;
49840;SDS011;35738;49.890;5.930;2023-04-01T07:54:26;0.82;;;0.82;;
49840;SDS011;35738;49.890;5.930;2023-04-01T07:57:15;0.90;;;0.90;;
49840;SDS011;35738;49.890;5.930;2023-04-01T08:00:23;1.42;;;0.90;;
49840;SDS011;35738;49.890;5.930;2023-04-01T08:10:56;1.10;;;1.10;;
49840;SDS011;35738;49.890;5.930;2023-04-01T08:21:56;1.05;;;0.95;;
49840;SDS011;35738;49.890;5.930;2023-04-01T08:27:16;0.90;;;0.88;;
49840;SDS011;35738;49.890;5.930;2023-04-01T08:32:37;12.35;;;8.63;;
49840;SDS011;35738;49.890;5.930;2023-04-01T08:35:09;0.68;;;0.68;;
49840;SDS011;35738;49.890;5.930;2023-04-01T08:37:42;0.60;;;0.60;;
49840;SDS011;35738;49.890;5.930;2023-04-01T08:40:25;0.75;;;0.60;;
49840;SDS011;35738;49.890;5.930;2023-04-01T08:43:02;0.73;;;0.52;;
49840;SDS011;35738;49.890;5.930;2023-04-01T09:05:47;0.38;;;0.38;;
49840;SDS011;35738;49.890;5.930;2023-04-01T09:08:31;0.50;;;0.50;;
49840;SDS011;35738;49.890;5.930;2023-04-01T09:14:06;0.60;;;0.60;;
49840;SDS011;35738;49.890;5.930;2023-04-01T09:38:30;0.50;;;0.50;;
49840;SDS011;35738;49.890;5.930;2023-04-01T09:41:17;1.13;;;0.52;;
49840;SDS011;35738;49.890;5.930;2023-04-01T09:44:04;0.47;;;0.47;;
49840;SDS011;35738;49.890;5.930;2023-04-01T09:46:50;0.60;;;0.60;;
49840;SDS011;35738;49.890;5.930;2023-04-01T10:08:42;3.05;;;2.83;;
49840;SDS011;35738;49.890;5.930;2023-04-01T10:19:59;1.13;;;0.90;;
49840;SDS011;35738;49.890;5.930;2023-04-01T10:27:41;0.70;;;0.70;;
49840;SDS011;35738;49.890;5.930;2023-04-01T10:59:57;1.10;;;0.47;;
49840;SDS011;35738;49.890;5.930;2023-04-01T11:05:58;0.90;;;0.35;;
49840;SDS011;35738;49.890;5.930;2023-04-01T11:11:20;0.38;;;0.32;;
49840;SDS011;35738;49.890;5.930;2023-04-01T11:30:58;0.50;;;0.50;;
49840;SDS011;35738;49.890;5.930;2023-04-01T11:34:02;0.60;;;0.60;;
49840;SDS011;35738;49.890;5.930;2023-04-01T11:39:37;0.70;;;0.70;;
49840;SDS011;35738;49.890;5.930;2023-04-01T11:42:37;0.68;;;0.68;;
49840;SDS011;35738;49.890;5.930;2023-04-01T11:45:18;0.70;;;0.70;;
49840;SDS011;35738;49.890;5.930;2023-04-01T11:47:52;0.70;;;0.70;;
49840;SDS011;35738;49.890;5.930;2023-04-01T11:53:27;0.52;;;0.52;;
49840;SDS011;35738;49.890;5.930;2023-04-01T11:56:14;1.08;;;0.77;;
49840;SDS011;35738;49.890;5.930;2023-04-01T12:01:43;0.75;;;0.75;;
49840;SDS011;35738;49.890;5.930;2023-04-01T12:04:23;0.60;;;0.60;;
49840;SDS011;35738;49.890;5.930;2023-04-01T12:07:06;0.80;;;0.80;;
49840;SDS011;35738;49.890;5.930;2023-04-01T12:09:49;0.60;;;0.60;;
49840;SDS011;35738;49.890;5.930;2023-04-01T12:12:39;1.40;;;1.30;;
49840;SDS011;35738;49.890;5.930;2023-04-01T12:15:42;0.70;;;0.70;;
49840;SDS011;35738;49.890;5.930;2023-04-01T12:32:31;0.93;;;0.93;;
49840;SDS011;35738;49.890;5.930;2023-04-01T12:35:08;0.77;;;0.70;;
49840;SDS011;35738;49.890;5.930;2023-04-01T12:37:50;0.80;;;0.80;;
49840;SDS011;35738;49.890;5.930;2023-04-01T12:45:31;0.60;;;0.60;;
49840;SDS011;35738;49.890;5.930;2023-04-01T12:56:48;0.40;;;0.40;;
49840;SDS011;35738;49.890;5.930;2023-04-01T13:07:19;0.40;;;0.40;;
49840;SDS011;35738;49.890;5.930;2023-04-01T13:18:22;0.50;;;0.50;;
49840;SDS011;35738;49.890;5.930;2023-04-01T13:21:05;0.43;;;0.40;;
49840;SDS011;35738;49.890;5.930;2023-04-01T13:23:46;0.40;;;0.40;;
49840;SDS011;35738;49.890;5.930;2023-04-01T13:29:14;0.50;;;0.50;;
49840;SDS011;35738;49.890;5.930;2023-04-01T13:57:35;0.50;;;0.50;;
49840;SDS011;35738;49.890;5.930;2023-04-01T14:06:05;1.10;;;0.60;;
49840;SDS011;35738;49.890;5.930;2023-04-01T14:13:53;0.50;;;0.50;;
49840;SDS011;35738;49.890;5.930;2023-04-01T14:19:12;1.00;;;0.80;;
49840;SDS011;35738;49.890;5.930;2023-04-01T14:30:43;0.80;;;0.80;;
49840;SDS011;35738;49.890;5.930;2023-04-01T14:50:18;0.80;;;0.80;;
49840;SDS011;35738;49.890;5.930;2023-04-01T14:58:18;0.82;;;0.82;;
49840;SDS011;35738;49.890;5.930;2023-04-01T15:00:49;3.95;;;3.47;;
49840;SDS011;35738;49.890;5.930;2023-04-01T15:03:29;1.35;;;1.20;;
49840;SDS011;35738;49.890;5.930;2023-04-01T15:19:31;1.00;;;1.00;;
49840;SDS011;35738;49.890;5.930;2023-04-01T15:30:20;3.58;;;1.90;;
49840;SDS011;35738;49.890;5.930;2023-04-01T15:32:57;2.35;;;2.15;;
49840;SDS011;35738;49.890;5.930;2023-04-01T15:37:59;3.20;;;3.00;;
49840;SDS011;35738;49.890;5.930;2023-04-01T15:40:40;2.60;;;2.45;;
49840;SDS011;35738;49.890;5.930;2023-04-01T16:08:57;3.45;;;3.15;;
49840;SDS011;35738;49.890;5.930;2023-04-01T16:20:02;4.22;;;3.38;;
49840;SDS011;35738;49.890;5.930;2023-04-01T16:22:37;3.88;;;3.58;;
49840;SDS011;35738;49.890;5.930;2023-04-01T16:28:22;4.07;;;3.78;;
49840;SDS011;35738;49.890;5.930;2023-04-01T16:31:09;20.08;;;12.98;;
49840;SDS011;35738;49.890;5.930;2023-04-01T16:33:52;4.78;;;4.32;;
49840;SDS011;35738;49.890;5.930;2023-04-01T16:36:28;4.38;;;3.90;;
49840;SDS011;35738;49.890;5.930;2023-04-01T16:47:38;3.13;;;2.92;;
49840;SDS011;35738;49.890;5.930;2023-04-01T16:50:23;3.78;;;3.47;;
49840;SDS011;35738;49.890;5.930;2023-04-01T16:52:59;3.47;;;3.10;;
49840;SDS011;35738;49.890;5.930;2023-04-01T16:55:35;3.55;;;3.25;;
49840;SDS011;35738;49.890;5.930;2023-04-01T16:58:14;3.53;;;3.22;;
49840;SDS011;35738;49.890;5.930;2023-04-01T17:00:51;3.53;;;3.22;;
49840;SDS011;35738;49.890;5.930;2023-04-01T17:03:36;3.38;;;3.08;;
49840;SDS011;35738;49.890;5.930;2023-04-01T17:08:48;3.13;;;2.83;;
49840;SDS011;35738;49.890;5.930;2023-04-01T17:11:53;2.88;;;2.67;;
49840;SDS011;35738;49.890;5.930;2023-04-01T17:17:29;2.95;;;2.75;;
49840;SDS011;35738;49.890;5.930;2023-04-01T17:20:12;3.30;;;3.00;;
49840;SDS011;35738;49.890;5.930;2023-04-01T17:28:15;6.35;;;5.50;;
49840;SDS011;35738;49.890;5.930;2023-04-01T17:33:38;3.85;;;3.42;;
49840;SDS011;35738;49.890;5.930;2023-04-01T17:36:26;3.45;;;3.00;;
49840;SDS011;35738;49.890;5.930;2023-04-01T17:50:42;9.05;;;6.13;;
49840;SDS011;35738;49.890;5.930;2023-04-01T17:53:15;3.80;;;3.50;;
49840;SDS011;35738;49.890;5.930;2023-04-01T17:58:45;13.27;;;10.02;;
49840;SDS011;35738;49.890;5.930;2023-04-01T18:03:54;4.70;;;4.22;;
49840;SDS011;35738;49.890;5.930;2023-04-01T18:14:45;2.05;;;1.90;;
49840;SDS011;35738;49.890;5.930;2023-04-01T18:17:27;2.22;;;2.13;;
49840;SDS011;35738;49.890;5.930;2023-04-01T18:23:30;1.70;;;1.60;;
49840;SDS011;35738;49.890;5.930;2023-04-01T18:26:49;2.35;;;2.17;;
49840;SDS011;35738;49.890;5.930;2023-04-01T18:28:59;1.95;;;1.85;;
49840;SDS011;35738;49.890;5.930;2023-04-01T18:31:54;2.22;;;1.98;;
49840;SDS011;35738;49.890;5.930;2023-04-01T18:37:16;1.90;;;1.80;;
49840;SDS011;35738;49.890;5.930;2023-04-01T18:40:00;2.58;;;1.88;;
49840;SDS011;35738;49.890;5.930;2023-04-01T18:42:41;1.85;;;1.70;;
49840;SDS011;35738;49.890;5.930;2023-04-01T18:50:22;2.10;;;2.00;;
49840;SDS011;35738;49.890;5.930;2023-04-01T18:52:56;2.53;;;2.30;;
49840;SDS011;35738;49.890;5.930;2023-04-01T18:55:39;2.42;;;2.22;;
49840;SDS011;35738;49.890;5.930;2023-04-01T19:00:50;2.78;;;2.58;;
49840;SDS011;35738;49.890;5.930;2023-04-01T19:03:20;2.30;;;2.10;;
49840;SDS011;35738;49.890;5.930;2023-04-01T19:05:52;3.90;;;2.42;;
49840;SDS011;35738;49.890;5.930;2023-04-01T19:08:29;3.60;;;2.83;;
49840;SDS011;35738;49.890;5.930;2023-04-01T19:11:04;2.70;;;2.50;;
49840;SDS011;35738;49.890;5.930;2023-04-01T19:16:58;2.53;;;2.10;;
49840;SDS011;35738;49.890;5.930;2023-04-01T19:19:49;2.13;;;1.95;;
49840;SDS011;35738;49.890;5.930;2023-04-01T19:27:50;1.80;;;1.70;;
49840;SDS011;35738;49.890;5.930;2023-04-01T19:33:26;1.77;;;1.67;;
49840;SDS011;35738;49.890;5.930;2023-04-01T19:36:06;2.13;;;2.03;;
49840;SDS011;35738;49.890;5.930;2023-04-01T19:38:40;2.00;;;1.90;;
49840;SDS011;35738;49.890;5.930;2023-04-01T19:41:36;2.65;;;1.80;;
49840;SDS011;35738;49.890;5.930;2023-04-01T19:46:56;1.83;;;1.73;;
49840;SDS011;35738;49.890;5.930;2023-04-01T19:49:39;2.25;;;2.05;;
49840;SDS011;35738;49.890;5.930;2023-04-01T20:00:40;4.80;;;4.40;;
49840;SDS011;35738;49.890;5.930;2023-04-01T20:05:55;2.88;;;2.65;;
49840;SDS011;35738;49.890;5.930;2023-04-01T20:08:36;3.95;;;2.70;;
49840;SDS011;35738;49.890;5.930;2023-04-01T20:16:52;2.60;;;2.40;;
49840;SDS011;35738;49.890;5.930;2023-04-01T20:19:29;2.70;;;2.50;;
49840;SDS011;35738;49.890;5.930;2023-04-01T20:22:35;2.88;;;2.58;;
49840;SDS011;35738;49.890;5.930;2023-04-01T20:24:58;2.70;;;2.50;;
49840;SDS011;35738;49.890;5.930;2023-04-01T20:27:32;3.80;;;3.50;;
49840;SDS011;35738;49.890;5.930;2023-04-01T20:44:47;6.72;;;5.20;;
49840;SDS011;35738;49.890;5.930;2023-04-01T20:47:35;8.00;;;6.07;;
49840;SDS011;35738;49.890;5.930;2023-04-01T20:53:15;8.30;;;6.53;;
49840;SDS011;35738;49.890;5.930;2023-04-01T20:58:46;6.68;;;4.40;;
49840;SDS011;35738;49.890;5.930;2023-04-01T21:01:54;4.18;;;3.70;;
49840;SDS011;35738;49.890;5.930;2023-04-01T21:04:44;3.90;;;3.47;;
49840;SDS011;35738;49.890;5.930;2023-04-01T21:07:45;3.50;;;3.20;;
49840;SDS011;35738;49.890;5.930;2023-04-01T21:25:14;4.28;;;3.88;;
49840;SDS011;35738;49.890;5.930;2023-04-01T21:33:08;4.45;;;3.90;;
49840;SDS011;35738;49.890;5.930;2023-04-01T21:39:06;7.68;;;4.82;;
49840;SDS011;35738;49.890;5.930;2023-04-01T21:41:57;5.65;;;4.30;;
49840;SDS011;35738;49.890;5.930;2023-04-01T21:47:44;5.53;;;4.43;;
49840;SDS011;35738;49.890;5.930;2023-04-01T21:50:29;7.13;;;4.75;;
49840;SDS011;35738;49.890;5.930;2023-04-01T22:05:02;7.93;;;5.40;;
49840;SDS011;35738;49.890;5.930;2023-04-01T22:13:22;9.75;;;5.63;;
49840;SDS011;35738;49.890;5.930;2023-04-01T22:21:08;8.98;;;6.10;;
49840;SDS011;35738;49.890;5.930;2023-04-01T22:23:56;7.07;;;5.32;;
49840;SDS011;35738;49.890;5.930;2023-04-01T22:26:47;9.18;;;6.72;;
49840;SDS011;35738;49.890;5.930;2023-04-01T22:29:35;9.07;;;6.80;;
49840;SDS011;35738;49.890;5.930;2023-04-01T22:32:09;8.45;;;5.75;;
49840;SDS011;35738;49.890;5.930;2023-04-01T22:34:46;5.20;;;4.55;;
49840;SDS011;35738;49.890;5.930;2023-04-01T22:37:23;6.55;;;5.15;;
49840;SDS011;35738;49.890;5.930;2023-04-01T22:39:57;9.43;;;6.43;;
49840;SDS011;35738;49.890;5.930;2023-04-01T22:42:57;7.45;;;5.18;;
49840;SDS011;35738;49.890;5.930;2023-04-01T22:46:13;5.57;;;4.55;;
49840;SDS011;35738;49.890;5.930;2023-04-01T22:48:45;4.82;;;4.30;;
49840;SDS011;35738;49.890;5.930;2023-04-01T22:56:24;4.35;;;3.85;;
49840;SDS011;35738;49.890;5.930;2023-04-01T23:01:32;6.53;;;4.47;;
49840;SDS011;35738;49.890;5.930;2023-04-01T23:04:07;6.32;;;4.25;;
49840;SDS011;35738;49.890;5.930;2023-04-01T23:06:39;6.30;;;4.72;;
49840;SDS011;35738;49.890;5.930;2023-04-01T23:09:15;5.95;;;4.70;;
49840;SDS011;35738;49.890;5.930;2023-04-01T23:27:52;7.38;;;4.80;;
49840;SDS011;35738;49.890;5.930;2023-04-01T23:38:14;8.15;;;4.55;;
49840;SDS011;35738;49.890;5.930;2023-04-01T23:40:42;5.55;;;4.20;;
49840;SDS011;35738;49.890;5.930;2023-04-01T23:43:19;7.60;;;4.80;;
49840;SDS011;35738;49.890;5.930;2023-04-01T23:45:52;7.35;;;4.97;;
49840;SDS011;35738;49.890;5.930;2023-04-01T23:48:24;7.40;;;4.68;;
49840;SDS011;35738;49.890;5.930;2023-04-01T23:50:55;6.88;;;4.63;;
49840;SDS011;35738;49.890;5.930;2023-04-01T23:53:24;6.95;;;5.00;;
49840;SDS011;35738;49.890;5.930;2023-04-01T23:55:54;6.93;;;4.55;;
49840;SDS011;35738;49.890;5.930;2023-04-01T23:58:22;6.53;;;4.50;;
